sensor_id;sensor_type;location;lat;lon;timestamp;pressure;altitude;pressure_sealevel;temperature;humidity
20077;BME280;12348;42.710;23.378;2023-02-18T00:01:30;95913.31;;;1.83;100.00
20077;BME280;12348;42.710;23.378;2023-02-18T00:03:59;95909.91;;;1.76;100.00
20077;BME280;12348;42.710;23.378;2023-02-18T00:06:28;95912.91;;;1.54;100.00
20077;BME280;12348;42.710;23.378;2023-02-18T00:08:56;95903.69;;;1.57;100.00
20077;BME280;12348;42.710;23.378;2023-02-18T00:11:27;95902.44;;;1.91;100.00
20077;BME280;12348;42.710;23.378;2023-02-18T00:13:56;95894.03;;;1.94;100.00
20077;BME280;12348;42.710;23.378;2023-02-18T00:16:25;95893.16;;;2.00;100.00
20077;BME280;12348;42.710;23.378;2023-02-18T00:18:54;95885.44;;;1.99;100.00
20077;BME280;12348;42.710;23.378;2023-02-18T00:21:23;95888.41;;;1.84;100.00
20077;BME280;12348;42.710;23.378;2023-02-18T00:23:50;95877.22;;;1.75;100.00
20077;BME280;12348;42.710;23.378;2023-02-18T00:26:18;95860.75;;;1.66;100.00
20077;BME280;12348;42.710;23.378;2023-02-18T00:28:46;95861.34;;;1.93;100.00
20077;BME280;12348;42.710;23.378;2023-02-18T00:31:15;95851.66;;;1.81;100.00
20077;BME280;12348;42.710;23.378;2023-02-18T00:33:42;95858.94;;;1.60;100.00
20077;BME280;12348;42.710;23.378;2023-02-18T00:36:11;95856.84;;;1.37;100.00
20077;BME280;12348;42.710;23.378;2023-02-18T00:38:43;95864.16;;;1.10;100.00
20077;BME280;12348;42.710;23.378;2023-02-18T00:41:09;95868.03;;;1.08;100.00
20077;BME280;12348;42.710;23.378;2023-02-18T00:43:36;95856.88;;;0.99;100.00
20077;BME280;12348;42.710;23.378;2023-02-18T00:46:04;95866.13;;;0.83;100.00
20077;BME280;12348;42.710;23.378;2023-02-18T00:48:32;95858.50;;;1.00;100.00
20077;BME280;12348;42.710;23.378;2023-02-18T00:50:59;95851.16;;;1.02;100.00
20077;BME280;12348;42.710;23.378;2023-02-18T00:53:26;95855.00;;;1.06;100.00
20077;BME280;12348;42.710;23.378;2023-02-18T00:55:54;95851.94;;;1.09;100.00
20077;BME280;12348;42.710;23.378;2023-02-18T00:58:21;95849.31;;;1.03;100.00
20077;BME280;12348;42.710;23.378;2023-02-18T01:00:48;95855.94;;;1.18;100.00
20077;BME280;12348;42.710;23.378;2023-02-18T01:03:15;95862.53;;;1.09;100.00
20077;BME280;12348;42.710;23.378;2023-02-18T01:05:43;95858.63;;;1.12;100.00
20077;BME280;12348;42.710;23.378;2023-02-18T01:08:10;95865.66;;;0.93;100.00
20077;BME280;12348;42.710;23.378;2023-02-18T01:10:41;95863.31;;;0.71;100.00
20077;BME280;12348;42.710;23.378;2023-02-18T01:13:11;95864.41;;;0.44;100.00
20077;BME280;12348;42.710;23.378;2023-02-18T01:15:39;95853.63;;;0.39;100.00
20077;BME280;12348;42.710;23.378;2023-02-18T01:18:07;95847.13;;;0.21;100.00
20077;BME280;12348;42.710;23.378;2023-02-18T01:20:34;95856.28;;;0.26;100.00
20077;BME280;12348;42.710;23.378;2023-02-18T01:23:01;95854.44;;;0.39;100.00
20077;BME280;12348;42.710;23.378;2023-02-18T01:25:27;95853.84;;;0.31;100.00
20077;BME280;12348;42.710;23.378;2023-02-18T01:27:54;95849.94;;;0.40;100.00
20077;BME280;12348;42.710;23.378;2023-02-18T01:30:23;95858.53;;;0.29;100.00
20077;BME280;12348;42.710;23.378;2023-02-18T01:32:50;95845.56;;;0.01;100.00
20077;BME280;12348;42.710;23.378;2023-02-18T01:35:18;95844.75;;;-0.07;100.00
20077;BME280;12348;42.710;23.378;2023-02-18T01:37:46;95841.69;;;-0.10;100.00
20077;BME280;12348;42.710;23.378;2023-02-18T01:40:15;95853.69;;;-0.08;100.00
20077;BME280;12348;42.710;23.378;2023-02-18T01:42:42;95854.53;;;-0.07;100.00
20077;BME280;12348;42.710;23.378;2023-02-18T01:45:36;95860.63;;;-0.20;100.00
20077;BME280;12348;42.710;23.378;2023-02-18T01:48:10;95870.38;;;-0.40;100.00
20077;BME280;12348;42.710;23.378;2023-02-18T01:50:40;95868.94;;;-0.56;100.00
20077;BME280;12348;42.710;23.378;2023-02-18T01:53:09;95868.75;;;-0.48;100.00
20077;BME280;12348;42.710;23.378;2023-02-18T01:55:37;95867.09;;;-0.49;100.00
20077;BME280;12348;42.710;23.378;2023-02-18T01:58:04;95856.53;;;-0.22;100.00
20077;BME280;12348;42.710;23.378;2023-02-18T02:00:32;95854.09;;;-0.04;100.00
20077;BME280;12348;42.710;23.378;2023-02-18T02:03:00;95865.28;;;0.11;100.00
20077;BME280;12348;42.710;23.378;2023-02-18T02:05:31;95851.25;;;0.04;100.00
20077;BME280;12348;42.710;23.378;2023-02-18T02:08:00;95844.75;;;-0.13;100.00
20077;BME280;12348;42.710;23.378;2023-02-18T02:10:35;95839.44;;;-0.13;100.00
20077;BME280;12348;42.710;23.378;2023-02-18T02:13:11;95841.06;;;-0.12;100.00
20077;BME280;12348;42.710;23.378;2023-02-18T02:15:45;95845.56;;;-0.13;100.00
20077;BME280;12348;42.710;23.378;2023-02-18T02:18:34;95844.53;;;-0.05;100.00
20077;BME280;12348;42.710;23.378;2023-02-18T02:24:51;95863.81;;;0.42;100.00
20077;BME280;12348;42.710;23.378;2023-02-18T02:27:25;95858.09;;;0.45;100.00
20077;BME280;12348;42.710;23.378;2023-02-18T02:30:22;95849.41;;;0.83;100.00
20077;BME280;12348;42.710;23.378;2023-02-18T02:36:03;95831.84;;;0.88;100.00
20077;BME280;12348;42.710;23.378;2023-02-18T02:38:37;95831.97;;;1.00;100.00
20077;BME280;12348;42.710;23.378;2023-02-18T02:41:13;95840.91;;;1.12;100.00
20077;BME280;12348;42.710;23.378;2023-02-18T02:43:51;95831.78;;;1.33;100.00
20077;BME280;12348;42.710;23.378;2023-02-18T02:46:24;95833.06;;;1.24;100.00
20077;BME280;12348;42.710;23.378;2023-02-18T02:49:00;95832.50;;;1.15;100.00
20077;BME280;12348;42.710;23.378;2023-02-18T02:51:34;95831.44;;;0.85;100.00
20077;BME280;12348;42.710;23.378;2023-02-18T02:54:12;95852.16;;;0.56;100.00
20077;BME280;12348;42.710;23.378;2023-02-18T02:56:39;95853.06;;;0.17;100.00
20077;BME280;12348;42.710;23.378;2023-02-18T02:59:10;95853.28;;;-0.11;100.00
20077;BME280;12348;42.710;23.378;2023-02-18T03:01:49;95853.31;;;-0.44;100.00
20077;BME280;12348;42.710;23.378;2023-02-18T03:04:30;95859.56;;;-0.65;100.00
20077;BME280;12348;42.710;23.378;2023-02-18T03:07:12;95856.50;;;-0.69;100.00
20077;BME280;12348;42.710;23.378;2023-02-18T03:09:56;95848.53;;;-0.82;100.00
20077;BME280;12348;42.710;23.378;2023-02-18T03:12:34;95847.91;;;-0.91;100.00
20077;BME280;12348;42.710;23.378;2023-02-18T03:15:04;95847.56;;;-0.81;100.00
20077;BME280;12348;42.710;23.378;2023-02-18T03:17:36;95848.56;;;-0.89;100.00
20077;BME280;12348;42.710;23.378;2023-02-18T03:20:09;95853.84;;;-0.89;100.00
20077;BME280;12348;42.710;23.378;2023-02-18T03:22:45;95871.13;;;-0.93;100.00
20077;BME280;12348;42.710;23.378;2023-02-18T03:25:13;95869.75;;;-0.49;100.00
20077;BME280;12348;42.710;23.378;2023-02-18T03:27:43;95872.56;;;-0.64;100.00
20077;BME280;12348;42.710;23.378;2023-02-18T03:30:15;95882.13;;;-0.76;100.00
20077;BME280;12348;42.710;23.378;2023-02-18T03:32:44;95880.69;;;-0.72;100.00
20077;BME280;12348;42.710;23.378;2023-02-18T03:35:15;95883.97;;;-0.70;100.00
20077;BME280;12348;42.710;23.378;2023-02-18T03:37:47;95883.81;;;-0.55;100.00
20077;BME280;12348;42.710;23.378;2023-02-18T03:40:17;95893.34;;;-0.61;100.00
20077;BME280;12348;42.710;23.378;2023-02-18T03:42:44;95887.66;;;-0.51;100.00
20077;BME280;12348;42.710;23.378;2023-02-18T03:45:11;95889.91;;;-0.48;100.00
20077;BME280;12348;42.710;23.378;2023-02-18T03:47:38;95896.63;;;-0.45;100.00
20077;BME280;12348;42.710;23.378;2023-02-18T03:50:06;95893.81;;;-0.17;100.00
20077;BME280;12348;42.710;23.378;2023-02-18T03:52:33;95889.53;;;-0.25;100.00
20077;BME280;12348;42.710;23.378;2023-02-18T03:55:02;95889.13;;;0.05;100.00
20077;BME280;12348;42.710;23.378;2023-02-18T03:57:29;95890.34;;;-0.05;100.00
20077;BME280;12348;42.710;23.378;2023-02-18T03:59:56;95892.56;;;-0.28;100.00
20077;BME280;12348;42.710;23.378;2023-02-18T04:02:23;95892.78;;;-0.30;100.00
20077;BME280;12348;42.710;23.378;2023-02-18T04:04:50;95895.41;;;0.10;100.00
20077;BME280;12348;42.710;23.378;2023-02-18T04:07:17;95890.94;;;-0.29;100.00
20077;BME280;12348;42.710;23.378;2023-02-18T04:09:44;95895.22;;;-0.35;100.00
20077;BME280;12348;42.710;23.378;2023-02-18T04:12:12;95894.19;;;-0.47;100.00
20077;BME280;12348;42.710;23.378;2023-02-18T04:14:39;95892.16;;;-0.32;100.00
20077;BME280;12348;42.710;23.378;2023-02-18T04:17:06;95894.22;;;-0.20;100.00
20077;BME280;12348;42.710;23.378;2023-02-18T04:19:34;95881.78;;;0.20;100.00
20077;BME280;12348;42.710;23.378;2023-02-18T04:22:01;95874.34;;;0.55;100.00
20077;BME280;12348;42.710;23.378;2023-02-18T04:24:28;95869.41;;;0.79;100.00
20077;BME280;12348;42.710;23.378;2023-02-18T04:26:55;95871.84;;;0.73;100.00
20077;BME280;12348;42.710;23.378;2023-02-18T04:29:23;95868.72;;;0.38;100.00
20077;BME280;12348;42.710;23.378;2023-02-18T04:31:49;95868.44;;;0.60;100.00
20077;BME280;12348;42.710;23.378;2023-02-18T04:34:16;95877.56;;;0.70;100.00
20077;BME280;12348;42.710;23.378;2023-02-18T04:36:43;95865.78;;;0.60;100.00
20077;BME280;12348;42.710;23.378;2023-02-18T04:39:10;95869.00;;;0.75;100.00
20077;BME280;12348;42.710;23.378;2023-02-18T04:41:36;95880.63;;;0.74;100.00
20077;BME280;12348;42.710;23.378;2023-02-18T04:44:03;95880.66;;;0.61;100.00
20077;BME280;12348;42.710;23.378;2023-02-18T04:46:33;95869.91;;;0.49;100.00
20077;BME280;12348;42.710;23.378;2023-02-18T04:49:00;95873.13;;;0.58;100.00
20077;BME280;12348;42.710;23.378;2023-02-18T04:51:26;95877.00;;;0.62;100.00
20077;BME280;12348;42.710;23.378;2023-02-18T04:53:53;95879.41;;;0.63;100.00
20077;BME280;12348;42.710;23.378;2023-02-18T04:56:20;95878.19;;;0.66;100.00
20077;BME280;12348;42.710;23.378;2023-02-18T04:58:47;95883.25;;;0.74;100.00
20077;BME280;12348;42.710;23.378;2023-02-18T05:01:13;95888.94;;;0.91;100.00
20077;BME280;12348;42.710;23.378;2023-02-18T05:03:42;95891.72;;;1.03;100.00
20077;BME280;12348;42.710;23.378;2023-02-18T05:06:10;95884.31;;;1.18;100.00
20077;BME280;12348;42.710;23.378;2023-02-18T05:08:37;95872.91;;;1.17;100.00
20077;BME280;12348;42.710;23.378;2023-02-18T05:11:05;95869.59;;;1.22;100.00
20077;BME280;12348;42.710;23.378;2023-02-18T05:13:32;95880.06;;;1.10;100.00
20077;BME280;12348;42.710;23.378;2023-02-18T05:15:59;95876.25;;;1.00;100.00
20077;BME280;12348;42.710;23.378;2023-02-18T05:18:27;95867.56;;;0.79;100.00
20077;BME280;12348;42.710;23.378;2023-02-18T05:20:55;95856.84;;;0.54;100.00
20077;BME280;12348;42.710;23.378;2023-02-18T05:23:22;95862.75;;;0.56;100.00
20077;BME280;12348;42.710;23.378;2023-02-18T05:25:50;95873.94;;;0.58;100.00
20077;BME280;12348;42.710;23.378;2023-02-18T05:28:17;95874.09;;;0.70;100.00
20077;BME280;12348;42.710;23.378;2023-02-18T05:30:43;95882.88;;;0.70;100.00
20077;BME280;12348;42.710;23.378;2023-02-18T05:33:10;95885.19;;;1.05;100.00
20077;BME280;12348;42.710;23.378;2023-02-18T05:35:37;95880.56;;;1.32;100.00
20077;BME280;12348;42.710;23.378;2023-02-18T05:38:05;95891.47;;;1.49;100.00
20077;BME280;12348;42.710;23.378;2023-02-18T05:40:32;95873.75;;;1.75;100.00
20077;BME280;12348;42.710;23.378;2023-02-18T05:42:58;95871.78;;;1.95;100.00
20077;BME280;12348;42.710;23.378;2023-02-18T05:45:25;95882.59;;;2.18;100.00
20077;BME280;12348;42.710;23.378;2023-02-18T05:47:52;95872.78;;;2.19;100.00
20077;BME280;12348;42.710;23.378;2023-02-18T05:50:19;95877.75;;;2.34;100.00
20077;BME280;12348;42.710;23.378;2023-02-18T05:52:47;95886.19;;;2.49;100.00
20077;BME280;12348;42.710;23.378;2023-02-18T05:55:16;95890.94;;;2.65;100.00
20077;BME280;12348;42.710;23.378;2023-02-18T05:57:44;95893.06;;;2.75;100.00
20077;BME280;12348;42.710;23.378;2023-02-18T06:00:12;95876.75;;;2.90;100.00
20077;BME280;12348;42.710;23.378;2023-02-18T06:02:40;95880.66;;;3.06;100.00
20077;BME280;12348;42.710;23.378;2023-02-18T06:05:07;95885.31;;;3.10;100.00
20077;BME280;12348;42.710;23.378;2023-02-18T06:07:34;95887.72;;;3.30;100.00
20077;BME280;12348;42.710;23.378;2023-02-18T06:10:01;95890.41;;;2.94;100.00
20077;BME280;12348;42.710;23.378;2023-02-18T06:12:30;95897.38;;;2.58;100.00
20077;BME280;12348;42.710;23.378;2023-02-18T06:14:57;95883.59;;;2.24;100.00
20077;BME280;12348;42.710;23.378;2023-02-18T06:17:23;95886.00;;;2.26;100.00
20077;BME280;12348;42.710;23.378;2023-02-18T06:19:50;95880.25;;;2.29;100.00
20077;BME280;12348;42.710;23.378;2023-02-18T06:22:17;95881.06;;;2.73;100.00
20077;BME280;12348;42.710;23.378;2023-02-18T06:24:44;95873.50;;;2.88;100.00
20077;BME280;12348;42.710;23.378;2023-02-18T06:27:10;95872.94;;;3.16;100.00
20077;BME280;12348;42.710;23.378;2023-02-18T06:29:38;95880.88;;;3.04;100.00
20077;BME280;12348;42.710;23.378;2023-02-18T06:32:06;95888.75;;;3.59;100.00
20077;BME280;12348;42.710;23.378;2023-02-18T06:34:33;95880.69;;;3.66;100.00
20077;BME280;12348;42.710;23.378;2023-02-18T06:36:59;95874.88;;;3.69;100.00
20077;BME280;12348;42.710;23.378;2023-02-18T06:39:26;95875.16;;;3.79;100.00
20077;BME280;12348;42.710;23.378;2023-02-18T06:41:53;95869.03;;;3.91;100.00
20077;BME280;12348;42.710;23.378;2023-02-18T06:44:20;95873.81;;;4.00;100.00
20077;BME280;12348;42.710;23.378;2023-02-18T06:46:48;95882.88;;;4.34;100.00
20077;BME280;12348;42.710;23.378;2023-02-18T06:49:15;95884.47;;;4.47;100.00
20077;BME280;12348;42.710;23.378;2023-02-18T06:51:41;95879.25;;;4.76;100.00
20077;BME280;12348;42.710;23.378;2023-02-18T06:54:08;95873.31;;;4.97;96.39
20077;BME280;12348;42.710;23.378;2023-02-18T06:56:35;95871.66;;;4.96;93.16
20077;BME280;12348;42.710;23.378;2023-02-18T06:59:02;95881.47;;;4.79;94.03
20077;BME280;12348;42.710;23.378;2023-02-18T07:01:29;95877.63;;;4.51;95.12
20077;BME280;12348;42.710;23.378;2023-02-18T07:03:57;95877.84;;;4.85;94.66
20077;BME280;12348;42.710;23.378;2023-02-18T07:06:24;95880.28;;;6.13;90.79
20077;BME280;12348;42.710;23.378;2023-02-18T07:08:51;95877.81;;;7.22;82.07
20077;BME280;12348;42.710;23.378;2023-02-18T07:11:18;95872.13;;;7.19;78.95
20077;BME280;12348;42.710;23.378;2023-02-18T07:13:44;95861.50;;;6.63;79.13
20077;BME280;12348;42.710;23.378;2023-02-18T07:16:11;95862.78;;;6.61;78.12
20077;BME280;12348;42.710;23.378;2023-02-18T07:18:38;95863.72;;;7.10;77.76
20077;BME280;12348;42.710;23.378;2023-02-18T07:21:06;95858.22;;;7.44;75.52
20077;BME280;12348;42.710;23.378;2023-02-18T07:23:33;95853.88;;;7.16;75.22
20077;BME280;12348;42.710;23.378;2023-02-18T07:26:05;95852.66;;;7.50;73.87
20077;BME280;12348;42.710;23.378;2023-02-18T07:28:33;95854.19;;;7.95;72.03
20077;BME280;12348;42.710;23.378;2023-02-18T07:31:01;95864.72;;;8.71;69.19
20077;BME280;12348;42.710;23.378;2023-02-18T07:33:28;95862.22;;;9.90;66.00
20077;BME280;12348;42.710;23.378;2023-02-18T07:35:55;95858.22;;;10.34;61.03
20077;BME280;12348;42.710;23.378;2023-02-18T07:38:24;95861.19;;;10.48;59.23
20077;BME280;12348;42.710;23.378;2023-02-18T07:40:51;95860.09;;;10.54;59.33
20077;BME280;12348;42.710;23.378;2023-02-18T07:43:21;95854.41;;;9.79;60.39
20077;BME280;12348;42.710;23.378;2023-02-18T07:45:48;95858.41;;;9.03;62.73
20077;BME280;12348;42.710;23.378;2023-02-18T07:48:15;95857.13;;;9.11;62.95
20077;BME280;12348;42.710;23.378;2023-02-18T07:50:43;95861.31;;;8.91;64.01
20077;BME280;12348;42.710;23.378;2023-02-18T07:53:11;95859.41;;;8.82;64.55
20077;BME280;12348;42.710;23.378;2023-02-18T07:55:39;95862.53;;;9.21;62.59
20077;BME280;12348;42.710;23.378;2023-02-18T07:58:15;95866.97;;;9.53;60.57
20077;BME280;12348;42.710;23.378;2023-02-18T08:00:42;95863.28;;;10.15;58.44
20077;BME280;12348;42.710;23.378;2023-02-18T08:03:09;95856.75;;;11.13;57.16
20077;BME280;12348;42.710;23.378;2023-02-18T08:05:36;95857.66;;;11.53;53.06
20077;BME280;12348;42.710;23.378;2023-02-18T08:08:03;95859.31;;;12.67;51.27
20077;BME280;12348;42.710;23.378;2023-02-18T08:10:30;95852.41;;;14.51;47.92
20077;BME280;12348;42.710;23.378;2023-02-18T08:12:58;95845.09;;;14.14;46.30
20077;BME280;12348;42.710;23.378;2023-02-18T08:15:25;95839.19;;;14.63;44.72
20077;BME280;12348;42.710;23.378;2023-02-18T08:17:53;95849.91;;;13.41;45.77
20077;BME280;12348;42.710;23.378;2023-02-18T08:20:20;95857.56;;;13.34;46.60
20077;BME280;12348;42.710;23.378;2023-02-18T08:22:48;95850.94;;;14.40;45.02
20077;BME280;12348;42.710;23.378;2023-02-18T08:25:15;95848.38;;;13.54;45.56
20077;BME280;12348;42.710;23.378;2023-02-18T08:27:42;95841.81;;;14.17;44.43
20077;BME280;12348;42.710;23.378;2023-02-18T08:30:11;95846.44;;;14.68;43.55
20077;BME280;12348;42.710;23.378;2023-02-18T08:32:38;95850.50;;;13.57;44.91
20077;BME280;12348;42.710;23.378;2023-02-18T08:35:06;95848.19;;;13.21;45.77
20077;BME280;12348;42.710;23.378;2023-02-18T08:37:33;95839.34;;;11.99;48.44
20077;BME280;12348;42.710;23.378;2023-02-18T08:40:01;95833.53;;;11.77;49.57
20077;BME280;12348;42.710;23.378;2023-02-18T08:42:28;95844.03;;;12.23;48.77
20077;BME280;12348;42.710;23.378;2023-02-18T08:44:55;95847.03;;;12.16;48.91
20077;BME280;12348;42.710;23.378;2023-02-18T08:47:23;95842.31;;;11.98;48.96
20077;BME280;12348;42.710;23.378;2023-02-18T08:49:51;95848.84;;;11.92;49.47
20077;BME280;12348;42.710;23.378;2023-02-18T08:52:18;95847.47;;;11.34;49.85
20077;BME280;12348;42.710;23.378;2023-02-18T08:54:45;95847.84;;;11.12;51.18
20077;BME280;12348;42.710;23.378;2023-02-18T08:57:11;95840.88;;;11.66;50.38
20077;BME280;12348;42.710;23.378;2023-02-18T08:59:38;95852.66;;;11.85;49.55
20077;BME280;12348;42.710;23.378;2023-02-18T09:02:05;95847.28;;;11.75;49.86
20077;BME280;12348;42.710;23.378;2023-02-18T09:04:33;95835.25;;;12.07;49.10
20077;BME280;12348;42.710;23.378;2023-02-18T09:07:00;95828.41;;;12.49;47.77
20077;BME280;12348;42.710;23.378;2023-02-18T09:09:28;95836.97;;;12.27;48.09
20077;BME280;12348;42.710;23.378;2023-02-18T09:11:54;95832.41;;;12.22;49.45
20077;BME280;12348;42.710;23.378;2023-02-18T09:14:21;95835.75;;;12.72;47.17
20077;BME280;12348;42.710;23.378;2023-02-18T09:16:48;95838.28;;;12.88;47.16
20077;BME280;12348;42.710;23.378;2023-02-18T09:19:16;95830.16;;;12.34;47.41
20077;BME280;12348;42.710;23.378;2023-02-18T09:21:44;95839.78;;;12.46;47.73
20077;BME280;12348;42.710;23.378;2023-02-18T09:24:11;95825.63;;;11.91;49.87
20077;BME280;12348;42.710;23.378;2023-02-18T09:26:37;95829.81;;;12.41;49.20
20077;BME280;12348;42.710;23.378;2023-02-18T09:29:05;95827.53;;;12.82;47.84
20077;BME280;12348;42.710;23.378;2023-02-18T09:31:32;95821.09;;;13.69;45.80
20077;BME280;12348;42.710;23.378;2023-02-18T09:34:01;95814.75;;;13.98;44.68
20077;BME280;12348;42.710;23.378;2023-02-18T09:36:29;95812.69;;;14.09;44.41
20077;BME280;12348;42.710;23.378;2023-02-18T09:38:57;95814.50;;;14.13;43.64
20077;BME280;12348;42.710;23.378;2023-02-18T09:41:30;95816.00;;;13.68;45.41
20077;BME280;12348;42.710;23.378;2023-02-18T09:44:01;95811.06;;;14.59;44.16
20077;BME280;12348;42.710;23.378;2023-02-18T09:46:32;95814.56;;;16.20;41.63
20077;BME280;12348;42.710;23.378;2023-02-18T09:49:01;95810.16;;;17.09;39.38
20077;BME280;12348;42.710;23.378;2023-02-18T09:51:29;95808.03;;;17.37;39.41
20077;BME280;12348;42.710;23.378;2023-02-18T09:53:57;95809.59;;;16.67;39.39
20077;BME280;12348;42.710;23.378;2023-02-18T09:56:28;95795.13;;;15.90;39.99
20077;BME280;12348;42.710;23.378;2023-02-18T09:58:57;95796.72;;;16.28;40.17
20077;BME280;12348;42.710;23.378;2023-02-18T10:01:28;95798.28;;;15.06;41.59
20077;BME280;12348;42.710;23.378;2023-02-18T10:03:59;95797.84;;;15.40;41.71
20077;BME280;12348;42.710;23.378;2023-02-18T10:06:30;95791.69;;;16.97;39.95
20077;BME280;12348;42.710;23.378;2023-02-18T10:09:01;95787.47;;;18.14;37.85
20077;BME280;12348;42.710;23.378;2023-02-18T10:11:30;95770.25;;;19.12;35.41
20077;BME280;12348;42.710;23.378;2023-02-18T10:13:59;95769.28;;;19.38;35.04
20077;BME280;12348;42.710;23.378;2023-02-18T10:16:27;95768.31;;;19.93;34.33
20077;BME280;12348;42.710;23.378;2023-02-18T10:18:56;95765.91;;;20.67;33.93
20077;BME280;12348;42.710;23.378;2023-02-18T10:21:26;95762.94;;;22.07;30.59
20077;BME280;12348;42.710;23.378;2023-02-18T10:23:59;95752.22;;;23.02;29.07
20077;BME280;12348;42.710;23.378;2023-02-18T10:26:28;95754.72;;;22.63;28.69
20077;BME280;12348;42.710;23.378;2023-02-18T10:28:56;95754.91;;;22.26;28.85
20077;BME280;12348;42.710;23.378;2023-02-18T10:31:28;95742.47;;;22.16;29.56
20077;BME280;12348;42.710;23.378;2023-02-18T10:33:59;95744.63;;;20.18;30.59
20077;BME280;12348;42.710;23.378;2023-02-18T10:36:35;95746.03;;;21.03;29.98
20077;BME280;12348;42.710;23.378;2023-02-18T10:39:26;95728.78;;;21.64;29.28
20077;BME280;12348;42.710;23.378;2023-02-18T10:42:09;95712.31;;;21.64;28.58
20077;BME280;12348;42.710;23.378;2023-02-18T10:44:47;95710.75;;;20.89;29.26
20077;BME280;12348;42.710;23.378;2023-02-18T10:47:37;95714.94;;;20.29;29.54
20077;BME280;12348;42.710;23.378;2023-02-18T10:50:10;95713.50;;;21.14;28.92
20077;BME280;12348;42.710;23.378;2023-02-18T10:52:41;95710.28;;;21.24;29.04
20077;BME280;12348;42.710;23.378;2023-02-18T10:55:13;95708.94;;;21.18;28.92
20077;BME280;12348;42.710;23.378;2023-02-18T10:57:47;95708.25;;;21.09;29.34
20077;BME280;12348;42.710;23.378;2023-02-18T11:00:17;95700.59;;;19.57;30.44
20077;BME280;12348;42.710;23.378;2023-02-18T11:02:45;95708.84;;;18.33;31.68
20077;BME280;12348;42.710;23.378;2023-02-18T11:05:19;95686.59;;;18.70;31.50
20077;BME280;12348;42.710;23.378;2023-02-18T11:07:50;95684.94;;;18.39;32.24
20077;BME280;12348;42.710;23.378;2023-02-18T11:10:24;95674.66;;;18.92;31.63
20077;BME280;12348;42.710;23.378;2023-02-18T11:12:55;95683.53;;;18.80;31.70
20077;BME280;12348;42.710;23.378;2023-02-18T11:15:24;95680.53;;;18.55;31.86
20077;BME280;12348;42.710;23.378;2023-02-18T11:17:53;95671.41;;;18.60;31.91
20077;BME280;12348;42.710;23.378;2023-02-18T11:20:24;95672.25;;;18.90;31.41
20077;BME280;12348;42.710;23.378;2023-02-18T11:22:51;95667.09;;;18.97;31.23
20077;BME280;12348;42.710;23.378;2023-02-18T11:25:21;95650.25;;;18.48;31.55
20077;BME280;12348;42.710;23.378;2023-02-18T11:27:50;95652.63;;;18.11;32.79
20077;BME280;12348;42.710;23.378;2023-02-18T11:30:20;95659.28;;;18.40;32.39
20077;BME280;12348;42.710;23.378;2023-02-18T11:32:51;95654.75;;;18.44;32.19
20077;BME280;12348;42.710;23.378;2023-02-18T11:35:20;95655.78;;;18.31;32.37
20077;BME280;12348;42.710;23.378;2023-02-18T11:37:49;95636.47;;;17.98;32.81
20077;BME280;12348;42.710;23.378;2023-02-18T11:40:23;95643.41;;;17.78;32.92
20077;BME280;12348;42.710;23.378;2023-02-18T11:42:50;95637.94;;;17.60;33.33
20077;BME280;12348;42.710;23.378;2023-02-18T11:45:28;95640.63;;;17.95;33.78
20077;BME280;12348;42.710;23.378;2023-02-18T11:47:59;95635.53;;;17.67;34.04
20077;BME280;12348;42.710;23.378;2023-02-18T11:50:30;95640.97;;;17.67;34.55
20077;BME280;12348;42.710;23.378;2023-02-18T11:52:58;95634.50;;;18.15;33.56
20077;BME280;12348;42.710;23.378;2023-02-18T11:55:28;95635.44;;;18.20;33.45
20077;BME280;12348;42.710;23.378;2023-02-18T11:57:59;95621.03;;;18.19;33.72
20077;BME280;12348;42.710;23.378;2023-02-18T12:00:36;95618.06;;;17.86;34.27
20077;BME280;12348;42.710;23.378;2023-02-18T12:03:07;95611.47;;;17.87;34.41
20077;BME280;12348;42.710;23.378;2023-02-18T12:05:39;95604.97;;;18.26;34.27
20077;BME280;12348;42.710;23.378;2023-02-18T12:08:12;95608.16;;;18.28;33.57
20077;BME280;12348;42.710;23.378;2023-02-18T12:10:43;95603.56;;;18.50;34.14
20077;BME280;12348;42.710;23.378;2023-02-18T12:13:21;95599.63;;;18.68;33.99
20077;BME280;12348;42.710;23.378;2023-02-18T12:15:53;95603.16;;;18.69;33.89
20077;BME280;12348;42.710;23.378;2023-02-18T12:18:52;95595.81;;;18.31;34.56
20077;BME280;12348;42.710;23.378;2023-02-18T12:21:32;95593.25;;;18.26;34.67
20077;BME280;12348;42.710;23.378;2023-02-18T12:24:10;95588.59;;;18.26;34.90
20077;BME280;12348;42.710;23.378;2023-02-18T12:26:48;95575.66;;;18.14;34.80
20077;BME280;12348;42.710;23.378;2023-02-18T12:29:39;95567.13;;;17.78;35.77
20077;BME280;12348;42.710;23.378;2023-02-18T12:32:30;95570.69;;;17.09;36.78
20077;BME280;12348;42.710;23.378;2023-02-18T12:35:14;95573.72;;;16.99;36.96
20077;BME280;12348;42.710;23.378;2023-02-18T12:38:04;95556.69;;;17.62;36.81
20077;BME280;12348;42.710;23.378;2023-02-18T12:40:47;95550.13;;;17.72;36.34
20077;BME280;12348;42.710;23.378;2023-02-18T12:43:30;95545.91;;;18.01;36.01
20077;BME280;12348;42.710;23.378;2023-02-18T12:46:31;95550.28;;;17.76;36.59
20077;BME280;12348;42.710;23.378;2023-02-18T12:52:01;95543.88;;;18.18;36.01
20077;BME280;12348;42.710;23.378;2023-02-18T12:54:46;95542.00;;;18.40;36.47
20077;BME280;12348;42.710;23.378;2023-02-18T12:57:32;95539.34;;;18.61;36.28
20077;BME280;12348;42.710;23.378;2023-02-18T13:00:22;95538.19;;;18.62;34.86
20077;BME280;12348;42.710;23.378;2023-02-18T13:03:31;95538.53;;;18.31;35.81
20077;BME280;12348;42.710;23.378;2023-02-18T13:06:12;95540.91;;;18.41;35.77
20077;BME280;12348;42.710;23.378;2023-02-18T13:08:51;95544.25;;;18.08;35.69
20077;BME280;12348;42.710;23.378;2023-02-18T13:11:27;95548.22;;;17.81;36.27
20077;BME280;12348;42.710;23.378;2023-02-18T13:14:03;95522.75;;;18.15;36.05
20077;BME280;12348;42.710;23.378;2023-02-18T13:16:37;95527.97;;;17.91;36.27